createdAt,value
2023-05-21T00:00:27.754Z,98745.15
2023-05-21T00:02:54.517Z,98742.58
2023-05-21T00:05:21.652Z,98741.63
2023-05-21T00:07:48.226Z,98739.20
2023-05-21T00:10:14.906Z,98740.45
2023-05-21T00:12:41.499Z,98739.19
2023-05-21T00:15:08.917Z,98737.57
2023-05-21T00:17:35.644Z,98729.68
2023-05-21T00:20:03.339Z,98735.88
2023-05-21T00:22:29.832Z,98736.41
2023-05-21T00:24:56.675Z,98737.23
2023-05-21T00:27:23.203Z,98736.24
2023-05-21T00:29:49.896Z,98738.67
2023-05-21T00:32:16.839Z,98739.38
2023-05-21T00:34:43.289Z,98734.48
2023-05-21T00:37:09.798Z,98732.94
2023-05-21T00:39:36.388Z,98730.83
2023-05-21T00:42:02.889Z,98727.38
2023-05-21T00:44:29.798Z,98729.17
2023-05-21T00:46:56.570Z,98728.69
2023-05-21T00:49:23.677Z,98723.70
2023-05-21T00:51:50.498Z,98723.35
2023-05-21T00:54:17.384Z,98724.50
2023-05-21T00:56:45.022Z,98722.27
2023-05-21T00:59:11.545Z,98722.72
2023-05-21T01:01:38.100Z,98722.94
2023-05-21T01:04:05.030Z,98717.85
2023-05-21T01:06:31.495Z,98716.80
2023-05-21T01:08:58.375Z,98718.55
2023-05-21T01:11:37.691Z,98720.81
2023-05-21T01:14:05.548Z,98717.11
2023-05-21T01:16:32.508Z,98713.65
2023-05-21T01:18:59.542Z,98713.11
2023-05-21T01:21:29.480Z,98715.94
2023-05-21T01:23:56.332Z,98718.73
2023-05-21T01:26:23.122Z,98717.31
2023-05-21T01:28:49.616Z,98718.39
2023-05-21T01:31:33.317Z,98720.43
2023-05-21T01:34:02.246Z,98721.23
2023-05-21T01:36:38.593Z,98715.42
2023-05-21T01:39:18.671Z,98715.35
2023-05-21T01:41:46.159Z,98712.57
2023-05-21T01:44:15.187Z,98716.02
2023-05-21T01:46:41.782Z,98713.94
2023-05-21T01:49:09.132Z,98707.48
2023-05-21T01:51:36.865Z,98705.98
2023-05-21T01:54:03.767Z,98703.20
2023-05-21T01:56:30.525Z,98706.04
2023-05-21T01:58:57.022Z,98711.96
2023-05-21T02:01:23.555Z,98707.88
2023-05-21T02:03:50.237Z,98705.41
2023-05-21T02:06:16.874Z,98702.77
2023-05-21T02:08:43.525Z,98701.91
2023-05-21T02:11:10.057Z,98697.97
2023-05-21T02:13:36.544Z,98698.02
2023-05-21T02:16:03.244Z,98693.14
2023-05-21T02:18:29.714Z,98693.23
2023-05-21T02:20:56.181Z,98694.40
2023-05-21T02:23:22.724Z,98688.33
2023-05-21T02:25:49.220Z,98689.03
2023-05-21T02:28:15.890Z,98689.34
2023-05-21T02:30:42.374Z,98692.29
2023-05-21T02:33:08.852Z,98693.20
2023-05-21T02:35:35.507Z,98692.91
2023-05-21T02:38:02.253Z,98693.01
2023-05-21T02:40:29.015Z,98689.85
2023-05-21T02:42:55.576Z,98686.43
2023-05-21T02:45:22.087Z,98684.83
2023-05-21T02:47:48.630Z,98686.64
2023-05-21T02:50:15.393Z,98689.38
2023-05-21T02:52:42.530Z,98686.99
2023-05-21T02:55:09.666Z,98682.84
2023-05-21T02:57:36.400Z,98683.83
2023-05-21T03:00:03.221Z,98688.51
2023-05-21T03:02:29.766Z,98691.30
2023-05-21T03:04:56.717Z,98696.99
2023-05-21T03:07:23.831Z,98694.18
2023-05-21T03:09:50.544Z,98690.86
2023-05-21T03:12:17.184Z,98690.88
2023-05-21T03:14:43.687Z,98691.34
2023-05-21T03:17:10.427Z,98689.82
2023-05-21T03:19:37.099Z,98688.79
2023-05-21T03:22:04.554Z,98688.76
2023-05-21T03:24:31.591Z,98690.78
2023-05-21T03:26:58.184Z,98694.10
2023-05-21T03:29:25.242Z,98692.36
2023-05-21T03:31:53.318Z,98686.45
2023-05-21T03:34:20.119Z,98679.95
2023-05-21T03:36:47.791Z,98682.78
2023-05-21T03:39:14.884Z,98682.77
2023-05-21T03:41:41.662Z,98686.39
2023-05-21T03:44:08.959Z,98683.40
2023-05-21T03:46:35.608Z,98679.61
2023-05-21T03:49:02.447Z,98680.66
2023-05-21T03:51:29.214Z,98687.06
2023-05-21T03:53:58.348Z,98683.53
2023-05-21T03:56:25.075Z,98685.77
2023-05-21T03:58:52.095Z,98687.03
2023-05-21T04:01:20.107Z,98686.62
2023-05-21T04:03:46.934Z,98686.21
2023-05-21T04:06:13.901Z,98692.05
2023-05-21T04:08:40.454Z,98693.56
2023-05-21T04:11:07.021Z,98695.58
2023-05-21T04:13:33.655Z,98688.98
2023-05-21T04:16:00.277Z,98687.85
2023-05-21T04:18:26.923Z,98691.70
2023-05-21T04:20:53.669Z,98690.48
2023-05-21T04:23:20.170Z,98686.65
2023-05-21T04:25:47.024Z,98681.78
2023-05-21T04:28:13.543Z,98680.55
2023-05-21T04:30:40.055Z,98678.96
2023-05-21T04:33:06.801Z,98670.67
2023-05-21T04:35:33.683Z,98667.48
2023-05-21T04:38:02.274Z,98668.05
2023-05-21T04:40:30.276Z,98667.90
2023-05-21T04:42:56.880Z,98668.65
2023-05-21T04:45:23.347Z,98672.81
2023-05-21T04:47:50.003Z,98677.54
2023-05-21T04:50:16.669Z,98677.23
2023-05-21T04:52:43.167Z,98674.04
2023-05-21T04:55:10.309Z,98672.80
2023-05-21T04:57:37.303Z,98669.73
2023-05-21T05:00:04.587Z,98671.25
2023-05-21T05:02:31.063Z,98673.22
2023-05-21T05:04:57.592Z,98671.77
2023-05-21T05:07:24.036Z,98669.48
2023-05-21T05:09:50.585Z,98668.19
2023-05-21T05:12:17.201Z,98665.02
2023-05-21T05:14:43.660Z,98664.13
2023-05-21T05:17:10.175Z,98664.36
2023-05-21T05:19:36.789Z,98662.16
2023-05-21T05:22:03.474Z,98664.98
2023-05-21T05:24:30.134Z,98661.19
2023-05-21T05:26:56.849Z,98661.61
2023-05-21T05:29:23.322Z,98662.06
2023-05-21T05:31:49.860Z,98664.32
2023-05-21T05:34:16.442Z,98659.84
2023-05-21T05:36:43.196Z,98663.23
2023-05-21T05:39:09.699Z,98662.01
2023-05-21T05:41:36.372Z,98657.71
2023-05-21T05:44:03.157Z,98660.17
2023-05-21T05:46:29.695Z,98661.30
2023-05-21T05:48:56.367Z,98657.89
2023-05-21T05:51:22.821Z,98656.05
2023-05-21T05:53:49.557Z,98655.39
2023-05-21T05:56:16.065Z,98652.24
2023-05-21T05:58:42.782Z,98648.44
2023-05-21T06:01:09.279Z,98645.70
2023-05-21T06:03:35.977Z,98643.91
2023-05-21T06:06:02.883Z,98643.82
2023-05-21T06:08:29.523Z,98642.61
2023-05-21T06:10:56.047Z,98640.79
2023-05-21T06:13:22.559Z,98636.37
2023-05-21T06:15:49.124Z,98635.98
2023-05-21T06:18:16.219Z,98632.89
2023-05-21T06:20:42.693Z,98631.02
2023-05-21T06:23:09.158Z,98631.27
2023-05-21T06:25:36.151Z,98629.67
2023-05-21T06:28:02.976Z,98625.38
2023-05-21T06:30:29.414Z,98626.81
2023-05-21T06:32:56.060Z,98621.94
2023-05-21T06:35:23.357Z,98618.17
2023-05-21T06:37:49.884Z,98616.02
2023-05-21T06:40:16.464Z,98609.59
2023-05-21T06:42:42.961Z,98604.33
2023-05-21T06:45:10.124Z,98600.91
2023-05-21T06:47:36.689Z,98598.66
2023-05-21T06:50:03.859Z,98597.73
2023-05-21T06:52:30.383Z,98597.25
2023-05-21T06:54:56.942Z,98594.20
2023-05-21T06:57:23.442Z,98596.61
2023-05-21T06:59:50.032Z,98593.07
2023-05-21T07:02:16.618Z,98590.85
2023-05-21T07:04:43.224Z,98589.98
2023-05-21T07:07:09.868Z,98587.77
2023-05-21T07:09:36.366Z,98582.01
2023-05-21T07:12:02.906Z,98581.04
2023-05-21T07:14:29.390Z,98576.73
2023-05-21T07:16:56.000Z,98572.35
2023-05-21T07:19:22.645Z,98570.00
2023-05-21T07:21:49.637Z,98563.27
2023-05-21T07:24:16.153Z,98563.63
2023-05-21T07:26:42.813Z,98563.33
2023-05-21T07:29:09.280Z,98564.67
2023-05-21T07:31:35.910Z,98564.06
2023-05-21T07:34:02.635Z,98565.48
2023-05-21T07:36:29.309Z,98559.13
2023-05-21T07:38:55.998Z,98557.94
2023-05-21T07:41:22.469Z,98558.85
2023-05-21T07:43:49.473Z,98560.05
2023-05-21T07:46:16.048Z,98558.80
2023-05-21T07:48:42.616Z,98557.23
2023-05-21T07:51:09.123Z,98552.93
2023-05-21T07:53:35.794Z,98551.48
2023-05-21T07:56:02.643Z,98546.77
2023-05-21T07:58:29.127Z,98544.45
2023-05-21T08:00:55.798Z,98541.94
2023-05-21T08:03:22.502Z,98540.61
2023-05-21T08:05:49.217Z,98539.45
2023-05-21T08:08:16.633Z,98539.77
2023-05-21T08:10:43.530Z,98539.52
2023-05-21T08:13:11.913Z,98534.26
2023-05-21T08:15:38.839Z,98537.53
2023-05-21T08:18:05.649Z,98542.23
2023-05-21T08:20:32.571Z,98541.48
2023-05-21T08:22:59.877Z,98543.77
2023-05-21T08:25:27.275Z,98542.65
2023-05-21T08:27:54.518Z,98542.01
2023-05-21T08:30:21.114Z,98535.00
2023-05-21T08:32:48.856Z,98536.52
2023-05-21T08:35:15.415Z,98535.41
2023-05-21T08:37:42.154Z,98530.95
2023-05-21T08:40:12.668Z,98532.75
2023-05-21T08:42:47.339Z,98531.37
2023-05-21T08:45:15.084Z,98528.48
2023-05-21T08:47:43.530Z,98531.03
2023-05-21T08:50:12.475Z,98528.11
2023-05-21T08:52:39.200Z,98526.12
2023-05-21T08:55:06.470Z,98530.91
2023-05-21T08:57:33.166Z,98532.45
2023-05-21T09:00:00.340Z,98526.77
2023-05-21T09:02:27.304Z,98534.18
2023-05-21T09:04:54.492Z,98530.50
2023-05-21T09:07:21.264Z,98530.77
2023-05-21T09:10:12.192Z,98527.80
2023-05-21T09:12:38.697Z,98527.23
2023-05-21T09:15:06.038Z,98527.31
2023-05-21T09:17:32.592Z,98522.47
2023-05-21T09:20:12.857Z,98522.06
2023-05-21T09:22:50.073Z,98517.69
2023-05-21T09:25:18.852Z,98515.83
2023-05-21T09:27:45.394Z,98511.29
2023-05-21T09:30:13.912Z,98520.33
2023-05-21T09:32:41.559Z,98517.64
2023-05-21T09:35:13.055Z,98517.09
2023-05-21T09:37:44.320Z,98518.88
2023-05-21T09:40:19.417Z,98518.80
2023-05-21T09:42:49.085Z,98522.98
2023-05-21T09:45:19.636Z,98522.97
2023-05-21T09:47:47.900Z,98522.23
2023-05-21T09:50:19.152Z,98524.81
2023-05-21T09:52:45.993Z,98518.59
2023-05-21T09:55:14.201Z,98523.63
2023-05-21T09:57:45.456Z,98515.05
2023-05-21T10:00:22.889Z,98522.70
2023-05-21T10:02:57.417Z,98516.31
2023-05-21T10:05:28.958Z,98516.92
2023-05-21T10:08:03.111Z,98516.64
2023-05-21T10:10:31.352Z,98508.96
2023-05-21T10:13:06.295Z,98509.54
2023-05-21T10:15:42.605Z,98503.77
2023-05-21T10:18:10.953Z,98505.52
2023-05-21T10:20:38.163Z,98499.89
2023-05-21T10:23:06.116Z,98496.49
2023-05-21T10:25:33.389Z,98500.71
2023-05-21T10:28:00.268Z,98499.58
2023-05-21T10:30:27.532Z,98492.11
2023-05-21T10:32:56.096Z,98493.81
2023-05-21T10:35:23.383Z,98501.74
2023-05-21T10:37:51.553Z,98491.89
2023-05-21T10:40:18.251Z,98489.55
2023-05-21T10:42:50.560Z,98494.08
2023-05-21T10:45:31.846Z,98490.14
2023-05-21T10:48:36.570Z,98490.11
2023-05-21T10:51:27.731Z,98483.48
2023-05-21T10:54:00.159Z,98480.98
2023-05-21T10:56:41.199Z,98483.92
2023-05-21T10:59:26.007Z,98478.13
2023-05-21T11:01:53.951Z,98479.83
2023-05-21T11:04:26.871Z,98480.69
2023-05-21T11:06:53.580Z,98478.77
2023-05-21T11:09:20.468Z,98471.46
2023-05-21T11:11:51.925Z,98471.64
2023-05-21T11:14:38.196Z,98470.29
2023-05-21T11:17:07.517Z,98464.63
2023-05-21T11:19:35.996Z,98464.10
2023-05-21T11:22:23.878Z,98461.50
2023-05-21T11:24:51.628Z,98467.61
2023-05-21T11:27:31.956Z,98462.77
2023-05-21T11:29:58.453Z,98464.55
2023-05-21T11:32:25.216Z,98470.25
2023-05-21T11:34:51.756Z,98466.71
2023-05-21T11:37:18.302Z,98464.78
2023-05-21T11:39:45.485Z,98464.75
2023-05-21T11:42:12.749Z,98469.02
2023-05-21T11:44:43.712Z,98461.28
2023-05-21T11:47:12.413Z,98461.56
2023-05-21T11:49:39.603Z,98462.38
2023-05-21T11:52:08.932Z,98465.07
2023-05-21T11:54:42.594Z,98465.95
2023-05-21T11:57:09.531Z,98471.55
2023-05-21T11:59:36.844Z,98465.77
2023-05-21T12:02:04.422Z,98468.90
2023-05-21T12:04:34.898Z,98463.82
2023-05-21T12:07:06.953Z,98465.09
2023-05-21T12:09:44.830Z,98459.36
2023-05-21T12:12:14.042Z,98457.06
2023-05-21T12:14:44.667Z,98461.20
2023-05-21T12:17:11.337Z,98457.65
2023-05-21T12:19:38.439Z,98457.04
2023-05-21T12:22:05.673Z,98456.73
2023-05-21T12:24:33.636Z,98459.88
2023-05-21T12:27:01.874Z,98454.50
2023-05-21T12:29:32.444Z,98457.05
2023-05-21T12:32:00.903Z,98452.19
2023-05-21T12:34:48.252Z,98446.90
2023-05-21T12:37:21.856Z,98447.23
2023-05-21T12:39:50.178Z,98450.64
2023-05-21T12:42:17.244Z,98456.27
2023-05-21T12:44:46.592Z,98447.13
2023-05-21T12:47:13.836Z,98438.46
2023-05-21T12:49:42.656Z,98442.41
2023-05-21T12:52:12.918Z,98444.90
2023-05-21T12:54:40.496Z,98446.30
2023-05-21T12:57:17.341Z,98444.84
2023-05-21T12:59:46.571Z,98447.20
2023-05-21T13:02:39.468Z,98444.48
2023-05-21T13:05:10.857Z,98446.15
2023-05-21T13:07:39.208Z,98441.05
2023-05-21T13:10:06.809Z,98439.15
2023-05-21T13:12:34.999Z,98432.23
2023-05-21T13:15:03.269Z,98434.55
2023-05-21T13:17:30.368Z,98438.77
2023-05-21T13:20:10.418Z,98432.84
2023-05-21T13:22:39.098Z,98436.59
2023-05-21T13:25:07.235Z,98432.01
2023-05-21T13:27:33.752Z,98430.13
2023-05-21T13:30:00.933Z,98424.40
2023-05-21T13:32:27.731Z,98434.09
2023-05-21T13:34:54.715Z,98431.48
2023-05-21T13:37:21.254Z,98425.23
2023-05-21T13:39:47.861Z,98424.77
2023-05-21T13:42:14.551Z,98424.95
2023-05-21T13:44:41.367Z,98420.86
2023-05-21T13:47:08.823Z,98412.89
2023-05-21T13:49:35.548Z,98414.23
2023-05-21T13:52:03.622Z,98417.80
2023-05-21T13:54:30.572Z,98419.91
2023-05-21T13:56:57.386Z,98416.20
2023-05-21T13:59:23.986Z,98414.42
2023-05-21T14:01:50.958Z,98411.79
2023-05-21T14:04:18.951Z,98408.02
2023-05-21T14:06:46.393Z,98403.36
2023-05-21T14:09:13.785Z,98401.48
2023-05-21T14:11:40.574Z,98397.27
2023-05-21T14:14:07.779Z,98409.61
2023-05-21T14:16:34.333Z,98407.15
2023-05-21T14:19:01.061Z,98406.96
2023-05-21T14:21:27.573Z,98407.68
2023-05-21T14:23:54.261Z,98404.98
2023-05-21T14:26:20.759Z,98403.39
2023-05-21T14:28:47.211Z,98409.73
2023-05-21T14:31:14.969Z,98404.34
2023-05-21T14:33:41.480Z,98402.84
2023-05-21T14:36:08.113Z,98406.60
2023-05-21T14:38:34.565Z,98415.75
2023-05-21T14:41:01.076Z,98414.54
2023-05-21T14:43:27.518Z,98414.41
2023-05-21T14:45:54.056Z,98419.14
2023-05-21T14:48:20.936Z,98407.45
2023-05-21T14:50:47.589Z,98404.98
2023-05-21T14:53:14.108Z,98407.22
2023-05-21T14:55:40.837Z,98403.33
2023-05-21T14:58:07.799Z,98400.56
2023-05-21T15:00:35.749Z,98398.38
2023-05-21T15:03:03.304Z,98408.50
2023-05-21T15:05:29.916Z,98403.59
2023-05-21T15:07:57.546Z,98399.80
2023-05-21T15:10:25.711Z,98403.79
2023-05-21T15:12:52.925Z,98397.95
2023-05-21T15:15:20.382Z,98398.98
2023-05-21T15:17:48.075Z,98396.48
2023-05-21T15:20:15.000Z,98396.65
2023-05-21T15:22:41.736Z,98399.14
2023-05-21T15:25:09.283Z,98400.04
2023-05-21T15:27:35.861Z,98398.02
2023-05-21T15:30:02.613Z,98397.80
2023-05-21T15:32:29.353Z,98402.77
2023-05-21T15:34:56.114Z,98394.45
2023-05-21T15:37:22.765Z,98400.30
2023-05-21T15:39:49.353Z,98394.73
2023-05-21T15:42:16.017Z,98396.36
2023-05-21T15:44:42.526Z,98398.27
2023-05-21T15:47:09.413Z,98398.45
2023-05-21T15:49:35.976Z,98392.50
2023-05-21T15:52:02.499Z,98396.81
2023-05-21T15:54:29.936Z,98395.86
2023-05-21T15:56:56.753Z,98399.50
2023-05-21T15:59:23.450Z,98396.77
2023-05-21T16:01:49.960Z,98402.16
2023-05-21T16:04:16.568Z,98401.67
2023-05-21T16:06:43.541Z,98399.44
2023-05-21T16:09:10.085Z,98397.54
2023-05-21T16:11:36.730Z,98397.16
2023-05-21T16:14:03.319Z,98403.21
2023-05-21T16:16:30.061Z,98396.45
2023-05-21T16:18:56.585Z,98399.89
2023-05-21T16:21:23.844Z,98394.43
2023-05-21T16:23:50.510Z,98398.56
2023-05-21T16:26:17.021Z,98403.67
2023-05-21T16:28:43.774Z,98401.96
2023-05-21T16:31:10.274Z,98402.41
2023-05-21T16:33:36.758Z,98405.05
2023-05-21T16:36:03.427Z,98407.94
2023-05-21T16:38:29.947Z,98405.41
2023-05-21T16:40:56.622Z,98406.08
2023-05-21T16:43:23.144Z,98406.89
2023-05-21T16:45:49.696Z,98413.05
2023-05-21T16:48:16.149Z,98409.48
2023-05-21T16:50:42.929Z,98406.92
2023-05-21T16:53:09.654Z,98408.14
2023-05-21T16:55:38.000Z,98408.88
2023-05-21T16:58:06.238Z,98409.58
2023-05-21T17:00:34.268Z,98413.34
2023-05-21T17:03:00.890Z,98412.82
2023-05-21T17:05:27.815Z,98418.20
2023-05-21T17:07:54.294Z,98421.36
2023-05-21T17:10:21.211Z,98425.27
2023-05-21T17:12:47.828Z,98423.79
2023-05-21T17:15:14.337Z,98429.36
2023-05-21T17:17:40.838Z,98425.64
2023-05-21T17:20:08.159Z,98423.95
2023-05-21T17:22:34.815Z,98423.67
2023-05-21T17:25:01.314Z,98428.56
2023-05-21T17:27:27.852Z,98428.49
2023-05-21T17:29:54.417Z,98428.33
2023-05-21T17:32:20.874Z,98428.39
2023-05-21T17:34:47.579Z,98431.99
2023-05-21T17:37:14.227Z,98426.56
2023-05-21T17:39:41.307Z,98428.39
2023-05-21T17:42:07.834Z,98427.38
2023-05-21T17:44:34.342Z,98426.89
2023-05-21T17:47:00.917Z,98424.27
2023-05-21T17:49:27.452Z,98423.23
2023-05-21T17:51:54.423Z,98426.98
2023-05-21T17:54:20.910Z,98430.76
2023-05-21T17:56:47.455Z,98432.98
2023-05-21T17:59:14.267Z,98436.06
2023-05-21T18:01:41.067Z,98429.89
2023-05-21T18:04:08.083Z,98432.92
2023-05-21T18:06:34.549Z,98433.42
2023-05-21T18:09:01.128Z,98433.13
2023-05-21T18:11:27.648Z,98436.52
2023-05-21T18:13:54.344Z,98437.77
2023-05-21T18:16:21.024Z,98442.13
2023-05-21T18:18:47.835Z,98445.27
2023-05-21T18:21:14.493Z,98447.56
2023-05-21T18:23:40.956Z,98450.69
2023-05-21T18:26:07.463Z,98448.40
2023-05-21T18:28:33.989Z,98454.16
2023-05-21T18:31:00.459Z,98453.66
2023-05-21T18:33:27.415Z,98452.27
2023-05-21T18:35:54.547Z,98450.70
2023-05-21T18:38:21.849Z,98454.93
2023-05-21T18:40:50.438Z,98451.83
2023-05-21T18:43:17.781Z,98451.56
2023-05-21T18:45:45.173Z,98449.36
2023-05-21T18:48:11.919Z,98451.23
2023-05-21T18:50:39.334Z,98454.23
2023-05-21T18:53:06.168Z,98458.88
2023-05-21T18:55:34.464Z,98460.94
2023-05-21T18:58:01.182Z,98464.44
2023-05-21T19:00:27.725Z,98467.45
2023-05-21T19:02:55.625Z,98468.20
2023-05-21T19:05:22.435Z,98473.08
2023-05-21T19:07:49.112Z,98478.06
2023-05-21T19:10:15.624Z,98478.83
2023-05-21T19:12:43.192Z,98478.63
2023-05-21T19:15:10.509Z,98487.42
2023-05-21T19:17:37.408Z,98488.10
2023-05-21T19:20:04.523Z,98489.67
2023-05-21T19:22:31.437Z,98491.13
2023-05-21T19:24:58.127Z,98494.34
2023-05-21T19:27:24.653Z,98493.21
2023-05-21T19:29:51.134Z,98493.54
2023-05-21T19:32:17.746Z,98490.82
2023-05-21T19:34:44.576Z,98492.92
2023-05-21T19:37:11.209Z,98492.12
2023-05-21T19:39:38.814Z,98498.79
2023-05-21T19:42:06.296Z,98495.05
2023-05-21T19:44:33.175Z,98492.19
2023-05-21T19:47:01.038Z,98493.66
2023-05-21T19:49:28.026Z,98493.40
2023-05-21T19:51:55.270Z,98497.50
2023-05-21T19:54:23.027Z,98496.84
2023-05-21T19:56:50.357Z,98497.95
2023-05-21T19:59:17.882Z,98497.95
2023-05-21T20:01:44.771Z,98495.16
2023-05-21T20:04:12.387Z,98494.34
2023-05-21T20:06:39.204Z,98490.69
2023-05-21T20:09:06.503Z,98492.70
2023-05-21T20:11:33.626Z,98491.73
2023-05-21T20:14:00.130Z,98489.58
2023-05-21T20:16:26.674Z,98487.52
2023-05-21T20:18:53.291Z,98487.23
2023-05-21T20:21:19.896Z,98487.80
2023-05-21T20:23:46.954Z,98490.17
2023-05-21T20:26:14.472Z,98490.69
2023-05-21T20:28:41.706Z,98493.41
2023-05-21T20:31:08.567Z,98492.55
2023-05-21T20:33:37.123Z,98495.27
2023-05-21T20:36:04.670Z,98493.70
2023-05-21T20:38:31.095Z,98500.38
2023-05-21T20:40:57.615Z,98497.69
2023-05-21T20:43:24.142Z,98499.89
2023-05-21T20:45:51.133Z,98503.40
2023-05-21T20:48:17.657Z,98500.96
2023-05-21T20:50:44.205Z,98501.45
2023-05-21T20:53:11.203Z,98501.41
2023-05-21T20:55:38.457Z,98501.77
2023-05-21T20:58:05.371Z,98500.83
2023-05-21T21:00:32.143Z,98502.30
2023-05-21T21:02:59.352Z,98500.44
2023-05-21T21:05:25.969Z,98501.98
2023-05-21T21:07:55.462Z,98502.91
2023-05-21T21:10:22.677Z,98505.19
2023-05-21T21:12:49.381Z,98502.04
2023-05-21T21:15:16.030Z,98504.70
2023-05-21T21:17:42.606Z,98503.68
2023-05-21T21:20:09.369Z,98505.64
2023-05-21T21:22:35.833Z,98505.76
2023-05-21T21:25:02.356Z,98505.78
2023-05-21T21:27:28.881Z,98506.80
2023-05-21T21:29:55.321Z,98505.23
2023-05-21T21:32:21.876Z,98501.14
2023-05-21T21:34:48.850Z,98500.58
2023-05-21T21:37:16.383Z,98498.57
2023-05-21T21:39:43.177Z,98500.66
2023-05-21T21:42:09.710Z,98499.29
2023-05-21T21:44:36.162Z,98502.25
2023-05-21T21:47:02.734Z,98500.02
2023-05-21T21:49:29.288Z,98503.22
2023-05-21T21:51:55.775Z,98509.23
2023-05-21T21:54:22.324Z,98508.83
2023-05-21T21:56:49.186Z,98511.92
2023-05-21T21:59:15.698Z,98519.58
2023-05-21T22:01:43.085Z,98520.86
2023-05-21T22:04:09.714Z,98521.66
2023-05-21T22:06:36.333Z,98524.08
2023-05-21T22:09:02.895Z,98524.02
2023-05-21T22:11:29.653Z,98525.44
2023-05-21T22:13:56.212Z,98523.40
2023-05-21T22:16:22.930Z,98522.54
2023-05-21T22:18:49.579Z,98520.61
2023-05-21T22:21:16.038Z,98520.73
2023-05-21T22:23:42.939Z,98522.71
2023-05-21T22:26:10.010Z,98522.60
2023-05-21T22:28:36.579Z,98521.89
2023-05-21T22:31:03.699Z,98512.95
2023-05-21T22:33:30.434Z,98511.16
2023-05-21T22:35:57.214Z,98510.57
2023-05-21T22:38:24.969Z,98515.15
2023-05-21T22:40:51.641Z,98514.35
2023-05-21T22:43:18.518Z,98512.83
2023-05-21T22:45:45.187Z,98511.89
2023-05-21T22:48:11.787Z,98508.34
2023-05-21T22:50:38.884Z,98507.52
2023-05-21T22:53:07.089Z,98509.52
2023-05-21T22:55:33.807Z,98508.88
2023-05-21T22:58:00.332Z,98507.84
2023-05-21T23:00:27.739Z,98503.59
2023-05-21T23:02:54.901Z,98502.57
2023-05-21T23:05:21.996Z,98501.69
2023-05-21T23:07:48.778Z,98496.33
2023-05-21T23:10:15.291Z,98498.17
2023-05-21T23:12:41.807Z,98491.06
2023-05-21T23:15:08.919Z,98491.14
2023-05-21T23:17:35.385Z,98491.34
2023-05-21T23:20:02.038Z,98489.29
2023-05-21T23:22:28.578Z,98492.73
2023-05-21T23:24:55.079Z,98494.33
2023-05-21T23:27:21.530Z,98493.63
2023-05-21T23:29:48.158Z,98496.69
2023-05-21T23:32:15.329Z,98495.06
2023-05-21T23:34:41.857Z,98495.00
2023-05-21T23:37:08.625Z,98495.77
2023-05-21T23:39:35.395Z,98493.64
2023-05-21T23:42:02.281Z,98493.63
2023-05-21T23:44:28.917Z,98491.46
2023-05-21T23:46:55.420Z,98488.39
2023-05-21T23:49:22.085Z,98484.79
2023-05-21T23:51:49.020Z,98484.73
2023-05-21T23:54:15.515Z,98481.27
2023-05-21T23:56:42.006Z,98476.02
2023-05-21T23:59:08.698Z,98478.81
